createdAt,value
2022-08-17T00:00:43.332Z,5.95
2022-08-17T00:03:17.313Z,6.40
2022-08-17T00:05:49.842Z,5.68
2022-08-17T00:08:21.653Z,5.97
2022-08-17T00:10:51.169Z,6.13
2022-08-17T00:13:25.291Z,6.45
2022-08-17T00:15:58.677Z,5.65
2022-08-17T00:19:02.129Z,6.10
2022-08-17T00:21:23.840Z,5.13
2022-08-17T00:23:54.302Z,6.03
2022-08-17T00:26:34.870Z,6.78
2022-08-17T00:29:20.002Z,6.18
2022-08-17T00:31:49.352Z,7.03
2022-08-17T00:34:19.275Z,6.85
2022-08-17T00:36:47.576Z,6.32
2022-08-17T00:39:15.828Z,7.13
2022-08-17T00:41:44.612Z,6.00
2022-08-17T00:44:13.083Z,6.43
2022-08-17T00:46:44.316Z,6.30
2022-08-17T00:49:15.031Z,6.68
2022-08-17T00:51:50.464Z,6.28
2022-08-17T00:54:24.961Z,7.22
2022-08-17T00:56:59.892Z,6.53
2022-08-17T00:59:32.838Z,6.57
2022-08-17T01:02:01.757Z,6.93
2022-08-17T01:04:32.869Z,7.47
2022-08-17T01:07:04.446Z,7.57
2022-08-17T01:09:33.931Z,7.03
2022-08-17T01:12:02.245Z,6.75
2022-08-17T01:14:30.544Z,6.90
2022-08-17T01:17:00.186Z,6.85
2022-08-17T01:19:32.221Z,6.07
2022-08-17T01:22:10.125Z,6.75
2022-08-17T01:24:45.916Z,6.22
2022-08-17T01:27:15.634Z,5.75
2022-08-17T01:32:17.979Z,5.57
2022-08-17T01:34:50.447Z,6.18
2022-08-17T01:37:22.017Z,5.28
2022-08-17T01:39:57.042Z,5.45
2022-08-17T01:42:34.411Z,6.18
2022-08-17T01:45:12.568Z,6.00
2022-08-17T01:47:41.747Z,5.95
2022-08-17T01:50:15.779Z,6.38
2022-08-17T01:52:45.785Z,5.85
2022-08-17T01:55:18.709Z,5.97
2022-08-17T01:57:47.183Z,5.35
2022-08-17T02:00:18.268Z,5.85
2022-08-17T02:02:46.638Z,5.22
2022-08-17T02:05:15.510Z,5.78
2022-08-17T02:07:59.574Z,6.07
2022-08-17T02:10:33.927Z,5.35
2022-08-17T02:13:03.311Z,6.28
2022-08-17T02:15:31.978Z,5.40
2022-08-17T02:18:00.674Z,5.82
2022-08-17T02:20:41.293Z,5.50
2022-08-17T02:23:13.696Z,5.78
2022-08-17T02:25:47.689Z,5.00
2022-08-17T02:28:16.851Z,5.82
2022-08-17T02:31:00.310Z,6.10
2022-08-17T02:33:41.555Z,6.25
2022-08-17T02:36:11.342Z,6.07
2022-08-17T02:38:40.264Z,5.43
2022-08-17T02:41:12.648Z,6.13
2022-08-17T02:43:41.118Z,6.18
2022-08-17T02:46:09.639Z,5.97
2022-08-17T02:48:37.877Z,5.63
2022-08-17T02:51:06.169Z,5.80
2022-08-17T02:53:35.920Z,6.68
2022-08-17T02:56:05.264Z,7.80
2022-08-17T02:58:36.066Z,9.20
2022-08-17T03:01:07.053Z,8.02
2022-08-17T03:03:36.624Z,6.97
2022-08-17T03:06:07.643Z,7.88
2022-08-17T03:08:37.423Z,8.20
2022-08-17T03:11:06.050Z,7.65
2022-08-17T03:13:35.727Z,8.07
2022-08-17T03:16:04.187Z,9.13
2022-08-17T03:18:32.649Z,8.85
2022-08-17T03:21:04.471Z,7.82
2022-08-17T03:23:33.759Z,7.85
2022-08-17T03:26:02.219Z,7.85
2022-08-17T03:28:30.665Z,6.97
2022-08-17T03:31:00.337Z,6.55
2022-08-17T03:33:28.646Z,5.97
2022-08-17T03:35:57.615Z,5.53
2022-08-17T03:38:26.345Z,5.47
2022-08-17T03:40:59.509Z,5.30
2022-08-17T03:43:31.727Z,5.95
2022-08-17T03:46:29.009Z,5.30
2022-08-17T03:49:20.873Z,5.32
2022-08-17T03:52:06.468Z,5.38
2022-08-17T03:54:52.154Z,5.50
2022-08-17T03:57:20.465Z,4.75
2022-08-17T03:59:48.900Z,5.35
2022-08-17T04:02:22.472Z,6.65
2022-08-17T04:04:52.295Z,6.25
2022-08-17T04:07:22.774Z,6.13
2022-08-17T04:09:51.087Z,6.10
2022-08-17T04:12:23.157Z,6.43
2022-08-17T04:14:54.669Z,6.50
2022-08-17T04:17:28.996Z,7.10
2022-08-17T04:19:57.800Z,6.50
2022-08-17T04:22:31.818Z,6.70
2022-08-17T04:25:07.183Z,6.40
2022-08-17T04:27:35.800Z,5.93
2022-08-17T04:30:06.973Z,5.50
2022-08-17T04:32:59.477Z,5.65
2022-08-17T04:35:43.653Z,5.35
2022-08-17T04:38:15.360Z,4.95
2022-08-17T04:41:01.727Z,4.97
2022-08-17T04:43:32.034Z,5.03
2022-08-17T04:46:02.771Z,5.18
2022-08-17T04:48:37.400Z,5.10
2022-08-17T04:51:10.821Z,4.55
2022-08-17T04:53:41.128Z,4.60
2022-08-17T04:56:16.213Z,4.35
2022-08-17T04:58:46.730Z,4.93
2022-08-17T05:01:15.441Z,3.92
2022-08-17T05:03:45.437Z,4.00
2022-08-17T05:06:13.989Z,3.67
2022-08-17T05:08:42.614Z,3.75
2022-08-17T05:11:10.894Z,3.80
2022-08-17T05:13:39.157Z,4.40
2022-08-17T05:16:09.120Z,3.55
2022-08-17T05:18:38.873Z,4.97
2022-08-17T05:21:08.938Z,4.25
2022-08-17T05:23:41.830Z,4.05
2022-08-17T05:26:26.190Z,4.45
2022-08-17T05:29:02.438Z,3.90
2022-08-17T05:31:32.407Z,3.97
2022-08-17T05:34:00.773Z,3.95
2022-08-17T05:36:43.543Z,4.95
2022-08-17T05:39:16.089Z,4.25
2022-08-17T05:41:48.912Z,4.35
2022-08-17T05:44:18.105Z,3.42
2022-08-17T05:46:52.737Z,5.60
2022-08-17T05:49:28.459Z,4.07
2022-08-17T05:52:21.781Z,4.72
2022-08-17T05:55:05.376Z,4.20
2022-08-17T05:58:01.000Z,4.00
2022-08-17T06:00:42.759Z,4.15
2022-08-17T06:03:28.230Z,4.37
2022-08-17T06:06:10.135Z,5.05
2022-08-17T06:08:51.967Z,4.32
2022-08-17T06:11:29.525Z,4.87
2022-08-17T06:14:23.309Z,5.35
2022-08-17T06:16:56.326Z,5.63
2022-08-17T06:19:37.258Z,5.55
2022-08-17T06:22:06.831Z,6.03
2022-08-17T06:24:40.503Z,5.80
2022-08-17T06:27:15.154Z,6.03
2022-08-17T06:29:54.270Z,6.85
2022-08-17T06:32:23.198Z,7.45
2022-08-17T06:34:52.591Z,6.50
2022-08-17T06:38:01.564Z,6.90
2022-08-17T06:40:57.509Z,7.57
2022-08-17T06:43:48.199Z,7.40
2022-08-17T06:46:25.300Z,6.90
2022-08-17T06:49:08.185Z,7.68
2022-08-17T06:51:41.871Z,8.27
2022-08-17T06:54:20.028Z,8.15
2022-08-17T06:56:58.348Z,7.63
2022-08-17T06:59:36.289Z,7.63
2022-08-17T07:02:51.160Z,7.95
2022-08-17T07:05:25.282Z,6.85
2022-08-17T07:08:02.567Z,7.30
2022-08-17T07:10:39.018Z,8.05
2022-08-17T07:13:32.422Z,6.93
2022-08-17T07:16:14.710Z,7.25
2022-08-17T07:18:43.834Z,7.15
2022-08-17T07:21:26.510Z,7.40
2022-08-17T07:24:30.069Z,6.88
2022-08-17T07:27:09.328Z,8.15
2022-08-17T07:29:49.445Z,6.60
2022-08-17T07:32:23.142Z,7.10
2022-08-17T07:35:17.983Z,7.28
2022-08-17T07:37:54.153Z,7.28
2022-08-17T07:40:32.096Z,7.20
2022-08-17T07:43:26.360Z,6.10
2022-08-17T07:46:37.136Z,6.50
2022-08-17T07:49:33.639Z,6.63
2022-08-17T07:52:47.433Z,6.20
2022-08-17T07:54:56.112Z,6.35
2022-08-17T07:57:37.099Z,6.10
2022-08-17T08:00:19.387Z,4.80
2022-08-17T08:03:18.312Z,5.80
2022-08-17T08:05:53.587Z,6.38
2022-08-17T08:08:37.788Z,5.47
2022-08-17T08:11:11.270Z,5.57
2022-08-17T08:13:43.661Z,5.22
2022-08-17T08:16:25.341Z,4.88
2022-08-17T08:18:58.406Z,5.80
2022-08-17T08:21:43.406Z,6.45
2022-08-17T08:24:37.688Z,5.60
2022-08-17T08:27:23.063Z,6.55
2022-08-17T08:29:58.367Z,6.53
2022-08-17T08:32:48.030Z,6.55
2022-08-17T08:35:32.443Z,5.90
2022-08-17T08:38:13.484Z,6.15
2022-08-17T08:41:22.614Z,6.22
2022-08-17T08:44:06.058Z,6.00
2022-08-17T08:46:47.334Z,5.32
2022-08-17T08:50:03.420Z,5.63
2022-08-17T08:53:18.929Z,5.32
2022-08-17T08:55:55.936Z,5.13
2022-08-17T08:58:41.874Z,5.70
2022-08-17T09:01:22.160Z,5.40
2022-08-17T09:04:28.694Z,5.28
2022-08-17T09:07:17.279Z,5.78
2022-08-17T09:09:59.485Z,5.45
2022-08-17T09:15:13.989Z,5.50
2022-08-17T09:18:21.387Z,5.85
2022-08-17T09:23:32.460Z,5.15
2022-08-17T09:26:09.779Z,5.82
2022-08-17T09:28:42.609Z,5.30
2022-08-17T09:31:15.931Z,6.13
2022-08-17T09:33:48.634Z,5.82
2022-08-17T09:36:24.181Z,6.65
2022-08-17T09:39:02.002Z,5.70
2022-08-17T09:41:39.543Z,6.10
2022-08-17T09:44:29.038Z,5.38
2022-08-17T09:47:05.707Z,5.60
2022-08-17T09:49:42.509Z,5.65
2022-08-17T09:52:18.619Z,5.70
2022-08-17T09:54:48.029Z,5.82
2022-08-17T09:57:34.272Z,6.40
2022-08-17T10:00:20.475Z,6.03
2022-08-17T10:03:21.781Z,5.72
2022-08-17T10:05:57.649Z,5.47
2022-08-17T10:08:36.525Z,5.53
2022-08-17T10:11:19.507Z,5.05
2022-08-17T10:13:59.576Z,5.05
2022-08-17T10:16:38.303Z,5.28
2022-08-17T10:19:17.018Z,4.90
2022-08-17T10:22:32.419Z,5.00
2022-08-17T10:25:23.850Z,5.28
2022-08-17T10:27:59.183Z,4.63
2022-08-17T10:30:33.435Z,4.18
2022-08-17T10:33:05.354Z,4.45
2022-08-17T10:35:45.530Z,3.65
2022-08-17T10:38:38.682Z,3.63
2022-08-17T10:41:30.052Z,4.78
2022-08-17T10:44:38.632Z,3.88
2022-08-17T10:47:09.286Z,4.15
2022-08-17T10:49:39.718Z,3.63
2022-08-17T10:52:50.184Z,4.03
2022-08-17T10:55:20.698Z,4.03
2022-08-17T10:57:51.199Z,4.18
2022-08-17T11:00:58.299Z,3.53
2022-08-17T11:03:27.629Z,3.70
2022-08-17T11:06:12.701Z,3.60
2022-08-17T11:09:20.915Z,3.60
2022-08-17T11:12:32.730Z,3.70
2022-08-17T11:15:22.151Z,3.47
2022-08-17T11:18:27.365Z,3.50
2022-08-17T11:21:41.443Z,3.88
2022-08-17T11:24:20.766Z,3.72
2022-08-17T11:27:12.280Z,4.10
2022-08-17T11:29:56.835Z,3.75
2022-08-17T11:32:47.383Z,3.00
2022-08-17T11:35:42.636Z,3.20
2022-08-17T11:38:25.803Z,3.10
2022-08-17T11:41:22.321Z,3.85
2022-08-17T11:44:23.924Z,3.40
2022-08-17T11:47:28.054Z,3.63
2022-08-17T11:50:36.574Z,3.03
2022-08-17T11:53:05.526Z,3.08
2022-08-17T11:56:08.078Z,3.60
2022-08-17T11:58:41.945Z,3.60
2022-08-17T12:01:13.742Z,3.40
2022-08-17T12:03:54.217Z,3.38
2022-08-17T12:06:48.733Z,3.38
2022-08-17T12:09:22.145Z,3.42
2022-08-17T12:12:12.007Z,3.22
2022-08-17T12:15:09.626Z,3.45
2022-08-17T12:17:52.275Z,3.30
2022-08-17T12:20:27.853Z,3.22
2022-08-17T12:23:10.530Z,3.20
2022-08-17T12:25:44.532Z,3.20
2022-08-17T12:28:25.314Z,3.35
2022-08-17T12:30:57.326Z,3.55
2022-08-17T12:33:28.837Z,3.97
2022-08-17T12:36:02.834Z,3.65
2022-08-17T12:38:34.769Z,3.45
2022-08-17T12:41:26.353Z,3.40
2022-08-17T12:44:01.622Z,3.87
2022-08-17T12:46:35.903Z,3.53
2022-08-17T12:49:22.869Z,3.38
2022-08-17T12:51:56.986Z,4.00
2022-08-17T12:54:33.878Z,3.42
2022-08-17T12:57:07.378Z,4.07
2022-08-17T12:59:40.696Z,4.35
2022-08-17T13:02:21.424Z,4.00
2022-08-17T13:04:50.102Z,3.88
2022-08-17T13:07:30.941Z,4.30
2022-08-17T13:09:59.694Z,4.20
2022-08-17T13:12:34.550Z,4.47
2022-08-17T13:15:03.304Z,3.90
2022-08-17T13:17:36.593Z,4.13
2022-08-17T13:20:14.734Z,4.40
2022-08-17T13:22:44.486Z,4.63
2022-08-17T13:25:17.831Z,4.50
2022-08-17T13:27:49.292Z,4.55
2022-08-17T13:30:27.979Z,4.15
2022-08-17T13:32:58.696Z,4.35
2022-08-17T13:35:44.142Z,4.85
2022-08-17T13:38:40.517Z,4.22
2022-08-17T13:41:08.869Z,4.97
2022-08-17T13:43:49.581Z,4.57
2022-08-17T13:46:24.498Z,4.63
2022-08-17T13:49:03.784Z,4.68
2022-08-17T13:51:36.661Z,4.88
2022-08-17T13:54:21.594Z,4.60
2022-08-17T13:57:01.610Z,5.03
2022-08-17T13:59:54.278Z,4.88
2022-08-17T14:02:27.233Z,4.45
2022-08-17T14:05:00.575Z,5.38
2022-08-17T14:07:36.486Z,4.70
2022-08-17T14:10:14.243Z,5.25
2022-08-17T14:12:45.298Z,4.55
2022-08-17T14:15:16.739Z,5.22
2022-08-17T14:17:45.315Z,5.13
2022-08-17T14:20:15.228Z,5.60
2022-08-17T14:22:48.286Z,4.72
2022-08-17T14:25:20.701Z,5.43
2022-08-17T14:27:53.469Z,4.75
2022-08-17T14:30:25.283Z,4.88
2022-08-17T14:32:55.315Z,6.10
2022-08-17T14:35:27.874Z,5.45
2022-08-17T14:37:56.552Z,5.05
2022-08-17T14:40:25.702Z,5.65
2022-08-17T14:42:57.653Z,5.32
2022-08-17T14:45:32.051Z,5.78
2022-08-17T14:48:05.653Z,5.88
2022-08-17T14:50:36.312Z,5.93
2022-08-17T14:53:06.243Z,5.93
2022-08-17T14:55:35.506Z,6.60
2022-08-17T14:58:04.902Z,5.90
2022-08-17T15:00:33.304Z,5.82
2022-08-17T15:03:03.271Z,7.47
2022-08-17T15:05:36.969Z,7.10
2022-08-17T15:08:06.276Z,7.28
2022-08-17T15:10:35.220Z,7.18
2022-08-17T15:13:03.836Z,7.80
2022-08-17T15:15:32.648Z,7.10
2022-08-17T15:18:02.426Z,6.53
2022-08-17T15:20:31.585Z,6.93
2022-08-17T15:23:01.250Z,6.55
2022-08-17T15:25:32.764Z,6.22
2022-08-17T15:28:02.330Z,6.22
2022-08-17T15:30:31.903Z,6.63
2022-08-17T15:33:03.608Z,6.03
2022-08-17T15:35:34.325Z,5.88
2022-08-17T15:38:11.529Z,5.75
2022-08-17T15:40:44.179Z,5.50
2022-08-17T15:43:17.527Z,5.68
2022-08-17T15:45:52.907Z,6.45
2022-08-17T15:51:12.090Z,6.75
2022-08-17T15:53:43.328Z,6.43
2022-08-17T15:56:13.655Z,6.40
2022-08-17T15:58:43.649Z,6.22
2022-08-17T16:01:18.733Z,7.10
2022-08-17T16:04:06.535Z,7.00
2022-08-17T16:06:35.715Z,6.55
2022-08-17T16:09:05.568Z,6.85
2022-08-17T16:11:33.843Z,6.93
2022-08-17T16:14:02.142Z,7.28
2022-08-17T16:16:31.278Z,6.38
2022-08-17T16:18:59.627Z,6.07
2022-08-17T16:21:29.708Z,6.28
2022-08-17T16:24:06.217Z,5.57
2022-08-17T16:26:41.853Z,6.18
2022-08-17T16:29:10.564Z,5.43
2022-08-17T16:31:39.060Z,5.53
2022-08-17T16:34:17.579Z,5.70
2022-08-17T16:36:55.333Z,5.30
2022-08-17T16:39:29.011Z,5.35
2022-08-17T16:41:58.291Z,4.53
2022-08-17T16:44:30.917Z,4.85
2022-08-17T16:47:01.017Z,5.25
2022-08-17T16:49:36.929Z,5.35
2022-08-17T16:52:10.608Z,4.13
2022-08-17T16:54:44.250Z,4.80
2022-08-17T16:57:13.382Z,5.20
2022-08-17T16:59:47.468Z,4.15
2022-08-17T17:02:17.922Z,5.10
2022-08-17T17:04:59.341Z,4.93
2022-08-17T17:07:50.044Z,5.53
2022-08-17T17:10:23.980Z,5.00
2022-08-17T17:13:01.414Z,4.40
2022-08-17T17:15:49.385Z,5.05
2022-08-17T17:18:17.766Z,5.20
2022-08-17T17:20:55.726Z,4.40
2022-08-17T17:23:42.267Z,4.55
2022-08-17T17:26:33.195Z,6.18
2022-08-17T17:29:20.833Z,7.03
2022-08-17T17:32:05.509Z,5.95
2022-08-17T17:34:36.357Z,5.38
2022-08-17T17:37:11.844Z,4.60
2022-08-17T17:39:48.958Z,4.72
2022-08-17T17:42:24.512Z,4.57
2022-08-17T17:45:01.395Z,3.70
2022-08-17T17:47:31.289Z,3.17
2022-08-17T17:50:03.141Z,3.30
2022-08-17T17:52:45.320Z,3.20
2022-08-17T17:55:30.377Z,3.42
2022-08-17T17:58:13.331Z,3.05
2022-08-17T18:00:48.994Z,2.75
2022-08-17T18:03:43.979Z,3.55
2022-08-17T18:06:29.259Z,2.83
2022-08-17T18:09:19.318Z,2.92
2022-08-17T18:12:13.078Z,3.40
2022-08-17T18:15:21.708Z,3.63
2022-08-17T18:18:38.590Z,2.85
2022-08-17T18:21:16.391Z,3.08
2022-08-17T18:23:52.546Z,3.53
2022-08-17T18:26:48.086Z,2.72
2022-08-17T18:29:35.876Z,4.00
2022-08-17T18:32:27.611Z,3.88
2022-08-17T18:35:02.052Z,4.47
2022-08-17T18:37:39.834Z,4.43
2022-08-17T18:40:33.901Z,4.68
2022-08-17T18:43:24.291Z,4.32
2022-08-17T18:45:55.834Z,4.35
2022-08-17T18:48:33.405Z,4.53
2022-08-17T18:51:26.258Z,5.25
2022-08-17T18:54:21.303Z,4.55
2022-08-17T18:56:55.435Z,4.80
2022-08-17T18:59:36.055Z,4.38
2022-08-17T19:02:41.807Z,4.65
2022-08-17T19:05:34.294Z,5.00
2022-08-17T19:08:24.186Z,4.80
2022-08-17T19:10:56.853Z,4.43
2022-08-17T19:13:32.316Z,4.10
2022-08-17T19:16:13.897Z,4.00
2022-08-17T19:18:50.184Z,4.28
2022-08-17T19:21:26.402Z,4.03
2022-08-17T19:24:01.660Z,4.10
2022-08-17T19:26:54.855Z,4.18
2022-08-17T19:29:30.973Z,3.88
2022-08-17T19:32:00.470Z,3.67
2022-08-17T19:34:35.436Z,3.35
2022-08-17T19:37:13.265Z,3.53
2022-08-17T19:39:51.813Z,3.67
2022-08-17T19:42:42.482Z,4.20
2022-08-17T19:45:28.225Z,3.50
2022-08-17T19:48:13.556Z,3.67
2022-08-17T19:50:53.241Z,3.22
2022-08-17T19:53:54.502Z,3.13
2022-08-17T19:56:34.723Z,3.63
2022-08-17T19:59:11.712Z,3.70
2022-08-17T20:01:46.756Z,4.05
2022-08-17T20:04:32.374Z,3.95
2022-08-17T20:07:07.820Z,3.58
2022-08-17T20:09:40.711Z,4.00
2022-08-17T20:12:17.362Z,4.30
2022-08-17T20:14:55.388Z,4.63
2022-08-17T20:17:28.935Z,4.03
2022-08-17T20:20:06.400Z,4.72
2022-08-17T20:22:52.043Z,3.40
2022-08-17T20:25:34.131Z,3.70
2022-08-17T20:28:15.674Z,4.00
2022-08-17T20:30:45.033Z,1.83
2022-08-17T20:33:27.703Z,1.67
2022-08-17T20:36:17.340Z,1.48
2022-08-17T20:38:50.343Z,1.13
2022-08-17T20:41:22.791Z,1.45
2022-08-17T20:44:05.396Z,1.70
2022-08-17T20:46:57.968Z,1.70
2022-08-17T20:49:39.720Z,1.20
2022-08-17T20:52:13.442Z,1.52
2022-08-17T20:54:51.333Z,1.33
2022-08-17T20:57:48.824Z,1.35
2022-08-17T21:00:44.999Z,1.10
2022-08-17T21:03:50.376Z,1.27
2022-08-17T21:06:24.482Z,1.20
2022-08-17T21:08:58.852Z,1.50
2022-08-17T21:12:03.898Z,1.98
2022-08-17T21:15:02.187Z,2.30
2022-08-17T21:17:49.742Z,2.15
2022-08-17T21:20:33.244Z,2.28
2022-08-17T21:23:22.225Z,2.00
2022-08-17T21:26:19.939Z,2.25
2022-08-17T21:29:14.711Z,2.40
2022-08-17T21:32:19.273Z,2.72
2022-08-17T21:35:28.512Z,2.20
2022-08-17T21:38:05.017Z,2.20
2022-08-17T21:40:35.280Z,2.10
2022-08-17T21:43:25.116Z,2.55
2022-08-17T21:46:04.516Z,2.25
2022-08-17T21:48:44.343Z,2.78
2022-08-17T21:51:19.065Z,2.53
2022-08-17T21:53:52.304Z,2.30
2022-08-17T21:56:28.349Z,2.50
2022-08-17T21:59:03.017Z,2.40
2022-08-17T22:01:35.755Z,2.60
2022-08-17T22:04:19.092Z,2.53
2022-08-17T22:06:56.475Z,2.20
2022-08-17T22:09:29.028Z,2.00
2022-08-17T22:12:06.349Z,2.10
2022-08-17T22:14:52.628Z,2.67
2022-08-17T22:17:25.520Z,2.30
2022-08-17T22:19:58.983Z,2.47
2022-08-17T22:22:59.901Z,2.70
2022-08-17T22:25:29.560Z,2.80
2022-08-17T22:28:01.111Z,2.67
2022-08-17T22:30:37.182Z,2.53
2022-08-17T22:33:32.420Z,2.15
2022-08-17T22:36:26.029Z,2.42
2022-08-17T22:38:59.539Z,2.08
2022-08-17T22:41:41.769Z,2.35
2022-08-17T22:44:20.477Z,2.28
2022-08-17T22:47:22.731Z,2.00
2022-08-17T22:49:54.707Z,1.87
2022-08-17T22:52:34.106Z,1.65
2022-08-17T22:55:27.051Z,1.60
2022-08-17T22:58:09.239Z,1.55
2022-08-17T23:00:41.668Z,1.73
2022-08-17T23:03:18.920Z,1.50
2022-08-17T23:06:02.732Z,2.03
2022-08-17T23:08:35.553Z,1.88
2022-08-17T23:11:04.054Z,1.88
2022-08-17T23:13:33.417Z,1.90
2022-08-17T23:16:02.434Z,1.88
2022-08-17T23:18:30.770Z,2.05
2022-08-17T23:20:59.111Z,1.70
2022-08-17T23:23:27.560Z,1.58
2022-08-17T23:25:57.254Z,1.83
2022-08-17T23:28:25.581Z,2.28
2022-08-17T23:30:53.957Z,2.22
2022-08-17T23:33:30.253Z,2.25
2022-08-17T23:35:59.600Z,1.75
2022-08-17T23:38:28.811Z,2.30
2022-08-17T23:41:02.931Z,2.40
2022-08-17T23:43:31.637Z,2.78
2022-08-17T23:46:03.585Z,2.30
2022-08-17T23:48:35.975Z,2.50
2022-08-17T23:51:09.697Z,2.42
2022-08-17T23:53:44.077Z,2.38
2022-08-17T23:56:13.943Z,2.15
2022-08-17T23:58:44.917Z,2.47
